Terminal Aerodrome Forecast
Issued by NWS Portland, ME

Current Version | Previous Version | Text Only | Print | Product List | Glossary On
Versions: 1 2 3 4 5 6 7 8 9 10 11 12 13 14 15 16 17 18 19
837 FTUS41 KGYX 141120 TAFPWM TAF KPWM 141120Z 1412/1512 32013G23KT P6SM BKN060 FM141400 30012KT P6SM SCT050 FM150000 VRB03KT P6SM SKC=

USA.gov is the U.S. government's official web portal to all federal, state and local government web resources and services.